< Typhoon 197914 1979 Season Typhoon 197916 >
Typhoon 197915 (NANCY)
General InformationTrack Information on Google MapsDetailed Wind InformationList of All Images || Disaster Info.ResourceGoogle EarthGE AnimationAtom FeedGeoJSON
Detalied Best Track (Time Zone = UTC)
Year Month Day Hour Lat. Long. Pressure (hPa) Wind (kt) Class Image Chart
1979 9 15 00 10.4 120.0 1008 0 2 Image Chart
1979 9 15 06 10.7 119.4 1006 0 2 Image Chart
1979 9 15 12 11.1 119.0 1006 0 2 Image Chart
1979 9 15 18 11.5 118.5 1006 0 2 Image Chart
1979 9 16 00 12.0 118.1 1006 0 2 Image Chart
1979 9 16 06 12.4 117.5 1006 0 2 Image Chart
1979 9 16 12 12.9 116.9 1006 0 2 Image Chart
1979 9 16 18 13.5 116.2 1006 0 2 Image Chart
1979 9 17 00 14.0 115.7 1006 0 2 Image Chart
1979 9 17 06 14.8 115.2 1006 0 2 Image Chart
1979 9 17 12 15.5 114.8 1006 0 2 Image Chart
1979 9 17 18 16.4 114.6 1006 0 2 Image Chart
1979 9 18 00 17.0 114.1 1006 0 2 Image Chart
1979 9 18 06 17.6 113.6 1004 0 2 Image Chart
1979 9 18 12 18.0 113.0 1004 0 2 Image Chart
1979 9 18 18 18.4 112.6 1004 0 2 Image Chart
1979 9 19 00 18.6 112.0 1002 0 2 Image Chart
1979 9 19 06 18.7 111.5 998 0 2 Image Chart
1979 9 19 12 18.8 110.8 994 45 3 Image Chart
1979 9 19 18 18.9 110.3 994 45 3 Image Chart
1979 9 20 00 18.9 109.7 994 45 3 Image Chart
1979 9 20 06 18.8 109.3 994 40 3 Image Chart
1979 9 20 12 18.5 109.1 992 40 3 Image Chart
1979 9 20 18 18.3 108.9 992 40 3 Image Chart
1979 9 21 00 18.0 108.6 992 40 3 Image Chart
1979 9 21 06 17.7 108.1 992 35 3 Image Chart
1979 9 21 12 17.5 107.8 994 35 3 Image Chart
1979 9 21 18 17.3 107.5 994 35 3 Image Chart
1979 9 22 00 17.0 107.0 996 0 2 Image Chart
1979 9 22 06 16.9 106.8 996 0 2 Image Chart
1979 9 22 12 16.8 106.4 998 0 2 Image Chart
1979 9 22 18 16.7 106.1 1000 0 2 Image Chart
1979 9 23 00 16.5 105.8 1002 0 2 Image Chart
1979 9 23 06 16.5 105.4 1000 0 2 Image Chart
1979 9 23 12 16.4 105.0 1002 0 2 Image Chart
Japan Meteorological Agency Best Track Data | Correction Date : 1992-10-21
< Typhoon 197914 1979 Season Typhoon 197916 >

Help